createdAt,value
2023-03-05T00:01:36.986Z,23.13
2023-03-05T00:04:26.544Z,24.60
2023-03-05T00:07:06.395Z,26.17
2023-03-05T00:09:47.356Z,25.47
2023-03-05T00:12:34.233Z,19.13
2023-03-05T00:15:15.394Z,27.10
2023-03-05T00:18:12.225Z,27.73
2023-03-05T00:20:46.204Z,20.57
2023-03-05T00:23:28.043Z,29.40
2023-03-05T00:26:10.360Z,21.10
2023-03-05T00:29:03.657Z,26.43
2023-03-05T00:31:51.498Z,21.97
2023-03-05T00:34:28.667Z,25.10
2023-03-05T00:37:00.664Z,25.00
2023-03-05T00:39:41.128Z,24.33
2023-03-05T00:42:44.848Z,22.87
2023-03-05T00:45:28.382Z,23.03
2023-03-05T00:48:15.453Z,22.53
2023-03-05T00:51:11.297Z,26.37
2023-03-05T00:54:06.567Z,28.70
2023-03-05T00:56:50.286Z,25.50
2023-03-05T00:59:31.672Z,29.27
2023-03-05T01:02:16.879Z,23.40
2023-03-05T01:05:08.311Z,25.00
2023-03-05T01:07:49.304Z,24.87
2023-03-05T01:10:30.637Z,25.53
2023-03-05T01:13:10.668Z,26.27
2023-03-05T01:15:47.981Z,23.37
2023-03-05T01:18:37.451Z,26.33
2023-03-05T01:21:09.494Z,22.80
2023-03-05T01:23:57.716Z,29.17
2023-03-05T01:26:45.091Z,25.63
2023-03-05T01:29:29.606Z,28.33
2023-03-05T01:32:03.950Z,25.23
2023-03-05T01:34:59.073Z,22.97
2023-03-05T01:37:32.499Z,22.63
2023-03-05T01:40:28.290Z,25.23
2023-03-05T01:43:29.753Z,23.67
2023-03-05T01:46:29.415Z,23.57
2023-03-05T01:49:18.453Z,24.27
2023-03-05T01:52:04.442Z,22.17
2023-03-05T01:54:54.293Z,27.17
2023-03-05T01:57:35.256Z,23.87
2023-03-05T02:00:47.657Z,28.27
2023-03-05T02:03:58.065Z,23.20
2023-03-05T02:06:38.777Z,21.00
2023-03-05T02:09:10.938Z,22.67
2023-03-05T02:11:50.512Z,21.03
2023-03-05T02:14:29.906Z,19.13
2023-03-05T02:17:07.045Z,19.60
2023-03-05T02:19:55.357Z,18.80
2023-03-05T02:23:21.375Z,19.57
2023-03-05T02:25:52.565Z,21.43
2023-03-05T02:28:41.172Z,22.73
2023-03-05T02:31:29.241Z,19.13
2023-03-05T02:34:22.057Z,28.03
2023-03-05T02:37:03.542Z,18.17
2023-03-05T02:39:56.518Z,23.97
2023-03-05T02:42:37.156Z,22.70
2023-03-05T02:45:13.922Z,22.33
2023-03-05T02:48:00.506Z,20.03
2023-03-05T02:50:32.324Z,22.53
2023-03-05T02:53:12.913Z,21.83
2023-03-05T02:55:58.050Z,22.03
2023-03-05T02:58:59.380Z,21.17
2023-03-05T03:01:41.617Z,20.83
2023-03-05T03:04:26.667Z,19.30
2023-03-05T03:07:22.003Z,20.40
2023-03-05T03:10:30.609Z,19.00
2023-03-05T03:13:22.589Z,25.63
2023-03-05T03:16:06.059Z,19.47
2023-03-05T03:18:45.880Z,20.33
2023-03-05T03:21:24.571Z,20.43
2023-03-05T03:24:21.106Z,18.53
2023-03-05T03:26:54.069Z,18.03
2023-03-05T03:30:14.487Z,21.53
2023-03-05T03:32:47.667Z,22.87
2023-03-05T03:35:23.022Z,18.63
2023-03-05T03:38:14.139Z,23.07
2023-03-05T03:40:54.475Z,22.33
2023-03-05T03:43:27.042Z,21.17
2023-03-05T03:46:39.827Z,19.13
2023-03-05T03:49:20.884Z,18.93
2023-03-05T03:52:12.467Z,20.37
2023-03-05T03:55:17.112Z,20.70
2023-03-05T03:58:13.850Z,24.50
2023-03-05T04:00:46.434Z,27.33
2023-03-05T04:03:22.824Z,24.90
2023-03-05T04:06:01.610Z,21.63
2023-03-05T04:09:02.413Z,19.60
2023-03-05T04:11:38.991Z,20.23
2023-03-05T04:14:12.486Z,27.40
2023-03-05T04:16:45.325Z,20.30
2023-03-05T04:19:40.022Z,20.37
2023-03-05T04:22:43.499Z,23.70
2023-03-05T04:25:18.079Z,22.87
2023-03-05T04:28:11.748Z,22.07
2023-03-05T04:31:01.878Z,23.83
2023-03-05T04:33:46.551Z,19.23
2023-03-05T04:36:42.469Z,17.00
2023-03-05T04:39:28.018Z,24.90
2023-03-05T04:41:58.266Z,18.87
2023-03-05T04:44:38.841Z,20.43
2023-03-05T04:47:14.549Z,19.23
2023-03-05T04:49:45.684Z,17.63
2023-03-05T04:52:46.232Z,19.43
2023-03-05T04:55:28.005Z,18.97
2023-03-05T04:58:26.198Z,22.20
2023-03-05T05:01:23.690Z,22.47
2023-03-05T05:04:20.953Z,22.63
2023-03-05T05:07:00.970Z,20.37
2023-03-05T05:09:44.692Z,18.93
2023-03-05T05:12:29.273Z,16.67
2023-03-05T05:15:04.111Z,19.27
2023-03-05T05:17:47.990Z,18.40
2023-03-05T05:20:45.585Z,21.00
2023-03-05T05:23:33.599Z,17.57
2023-03-05T05:26:29.421Z,22.23
2023-03-05T05:29:03.233Z,24.97
2023-03-05T05:32:14.465Z,17.27
2023-03-05T05:34:56.719Z,21.93
2023-03-05T05:37:29.073Z,19.47
2023-03-05T05:40:42.529Z,23.57
2023-03-05T05:43:25.957Z,17.87
2023-03-05T05:46:32.195Z,20.33
2023-03-05T05:49:25.583Z,19.33
2023-03-05T05:52:04.169Z,20.83
2023-03-05T05:54:34.668Z,17.60
2023-03-05T05:57:17.823Z,25.47
2023-03-05T05:59:58.069Z,21.63
2023-03-05T06:02:49.309Z,24.10
2023-03-05T06:05:30.314Z,21.60
2023-03-05T06:08:33.082Z,17.80
2023-03-05T06:11:21.020Z,23.57
2023-03-05T06:14:33.861Z,20.03
2023-03-05T06:17:12.853Z,22.67
2023-03-05T06:19:49.742Z,22.17
2023-03-05T06:22:39.705Z,23.20
2023-03-05T06:25:24.463Z,19.83
2023-03-05T06:28:26.295Z,23.60
2023-03-05T06:31:14.112Z,23.57
2023-03-05T06:34:07.296Z,22.43
2023-03-05T06:36:54.242Z,25.37
2023-03-05T06:39:30.686Z,24.43
2023-03-05T06:42:07.119Z,21.83
2023-03-05T06:44:55.892Z,22.37
2023-03-05T06:47:35.293Z,21.43
2023-03-05T06:50:08.224Z,25.27
2023-03-05T06:53:03.243Z,21.60
2023-03-05T06:55:43.712Z,26.40
2023-03-05T06:58:24.918Z,24.73
2023-03-05T07:01:16.229Z,26.47
2023-03-05T07:04:15.038Z,24.90
2023-03-05T07:07:43.712Z,25.07
2023-03-05T07:10:22.988Z,22.67
2023-03-05T07:12:56.914Z,21.63
2023-03-05T07:15:41.476Z,25.77
2023-03-05T07:18:38.205Z,19.57
2023-03-05T07:21:46.029Z,23.00
2023-03-05T07:24:44.307Z,24.87
2023-03-05T07:27:29.906Z,23.87
2023-03-05T07:30:08.332Z,22.50
2023-03-05T07:32:55.538Z,23.17
2023-03-05T07:35:37.376Z,26.60
2023-03-05T07:38:17.656Z,27.60
2023-03-05T07:41:07.509Z,25.23
2023-03-05T07:43:42.232Z,24.23
2023-03-05T07:46:25.542Z,24.57
2023-03-05T07:49:12.934Z,22.57
2023-03-05T07:51:52.744Z,22.60
2023-03-05T07:54:23.556Z,25.33
2023-03-05T07:57:30.500Z,28.13
2023-03-05T08:00:17.826Z,23.37
2023-03-05T08:02:59.057Z,26.47
2023-03-05T08:05:52.877Z,22.27
2023-03-05T08:08:45.016Z,25.13
2023-03-05T08:11:33.393Z,28.00
2023-03-05T08:14:22.765Z,23.17
2023-03-05T08:17:12.048Z,24.60
2023-03-05T08:19:46.229Z,25.63
2023-03-05T08:22:20.877Z,27.10
2023-03-05T08:25:01.283Z,26.00
2023-03-05T08:27:58.801Z,26.23
2023-03-05T08:30:54.719Z,21.67
2023-03-05T08:33:38.025Z,24.77
2023-03-05T08:36:37.658Z,24.77
2023-03-05T08:39:36.254Z,23.37
2023-03-05T08:42:14.031Z,20.37
2023-03-05T08:45:13.234Z,28.70
2023-03-05T08:48:20.656Z,25.63
2023-03-05T08:51:02.386Z,19.50
2023-03-05T08:53:58.230Z,16.73
2023-03-05T08:56:35.663Z,17.67
2023-03-05T08:59:13.616Z,17.10
2023-03-05T09:02:03.997Z,17.07
2023-03-05T09:04:57.816Z,17.00
2023-03-05T09:07:44.869Z,18.80
2023-03-05T09:10:27.444Z,15.23
2023-03-05T09:13:11.095Z,16.03
2023-03-05T09:15:51.130Z,13.03
2023-03-05T09:18:41.814Z,14.33
2023-03-05T09:21:38.373Z,16.87
2023-03-05T09:24:20.323Z,15.20
2023-03-05T09:27:02.160Z,12.47
2023-03-05T09:29:43.383Z,14.63
2023-03-05T09:32:26.022Z,13.30
2023-03-05T09:35:14.403Z,12.60
2023-03-05T09:38:14.464Z,17.70
2023-03-05T09:41:03.918Z,12.43
2023-03-05T09:44:01.656Z,12.30
2023-03-05T09:46:56.193Z,13.20
2023-03-05T09:49:48.807Z,15.20
2023-03-05T09:52:34.146Z,12.23
2023-03-05T09:55:37.733Z,12.13
2023-03-05T09:58:21.628Z,12.60
2023-03-05T10:01:02.903Z,9.67
2023-03-05T10:04:00.478Z,10.07
2023-03-05T10:06:42.503Z,13.40
2023-03-05T10:09:43.091Z,12.73
2023-03-05T10:12:44.937Z,11.77
2023-03-05T10:15:22.649Z,10.50
2023-03-05T10:18:20.915Z,10.13
2023-03-05T10:21:03.360Z,9.83
2023-03-05T10:24:06.485Z,11.13
2023-03-05T10:27:00.195Z,10.53
2023-03-05T10:30:40.453Z,12.17
2023-03-05T10:33:37.708Z,12.07
2023-03-05T10:36:41.935Z,12.87
2023-03-05T10:40:02.862Z,8.47
2023-03-05T10:42:48.797Z,10.33
2023-03-05T10:45:55.188Z,10.40
2023-03-05T10:48:44.723Z,10.27
2023-03-05T10:51:51.968Z,11.20
2023-03-05T10:54:31.088Z,10.33
2023-03-05T10:57:22.570Z,9.60
2023-03-05T11:00:08.984Z,9.30
2023-03-05T11:03:02.455Z,10.03
2023-03-05T11:06:05.474Z,11.63
2023-03-05T11:08:51.406Z,13.20
2023-03-05T11:11:36.416Z,9.60
2023-03-05T11:14:34.517Z,8.53
2023-03-05T11:17:45.069Z,8.33
2023-03-05T11:20:37.751Z,9.10
2023-03-05T11:23:31.399Z,8.57
2023-03-05T11:26:24.984Z,8.60
2023-03-05T11:29:10.360Z,12.17
2023-03-05T11:31:42.797Z,8.47
2023-03-05T11:34:43.960Z,8.57
2023-03-05T11:37:35.332Z,8.93
2023-03-05T11:40:26.479Z,9.00
2023-03-05T11:43:07.572Z,8.30
2023-03-05T11:46:03.222Z,9.70
2023-03-05T11:48:49.402Z,11.63
2023-03-05T11:51:38.178Z,8.63
2023-03-05T11:54:24.292Z,10.20
2023-03-05T11:57:16.794Z,7.10
2023-03-05T12:00:05.147Z,8.97
2023-03-05T12:02:50.901Z,9.30
2023-03-05T12:05:27.253Z,9.53
2023-03-05T12:08:06.139Z,8.30
2023-03-05T12:11:05.200Z,10.33
2023-03-05T12:14:05.618Z,9.10
2023-03-05T12:16:55.600Z,9.00
2023-03-05T12:19:45.044Z,9.83
2023-03-05T12:22:31.652Z,9.73
2023-03-05T12:25:33.119Z,9.13
2023-03-05T12:29:02.097Z,9.83
2023-03-05T12:31:46.863Z,7.93
2023-03-05T12:34:56.388Z,9.67
2023-03-05T12:38:24.250Z,9.43
2023-03-05T12:41:45.049Z,8.10
2023-03-05T12:45:56.507Z,8.83
2023-03-05T12:48:49.622Z,7.87
2023-03-05T12:51:48.253Z,9.60
2023-03-05T12:54:40.291Z,8.47
2023-03-05T12:57:32.378Z,9.33
2023-03-05T13:00:21.792Z,6.70
2023-03-05T13:03:05.376Z,6.83
2023-03-05T13:05:55.347Z,7.93
2023-03-05T13:08:52.138Z,8.27
2023-03-05T13:11:30.252Z,8.90
2023-03-05T13:14:08.556Z,8.13
2023-03-05T13:17:12.989Z,6.33
2023-03-05T13:20:06.269Z,7.83
2023-03-05T13:23:20.292Z,6.87
2023-03-05T13:26:04.566Z,7.87
2023-03-05T13:28:45.287Z,8.80
2023-03-05T13:31:26.144Z,8.43
2023-03-05T13:34:32.110Z,9.97
2023-03-05T13:37:29.538Z,8.63
2023-03-05T13:40:17.095Z,8.37
2023-03-05T13:42:59.629Z,8.07
2023-03-05T13:45:45.107Z,6.87
2023-03-05T13:48:33.280Z,6.43
2023-03-05T13:52:01.209Z,7.00
2023-03-05T13:54:42.170Z,7.67
2023-03-05T13:57:47.587Z,7.20
2023-03-05T14:00:37.373Z,7.43
2023-03-05T14:03:36.428Z,7.43
2023-03-05T14:06:34.221Z,8.43
2023-03-05T14:09:27.758Z,8.83
2023-03-05T14:12:36.862Z,6.83
2023-03-05T14:15:33.166Z,9.30
2023-03-05T14:18:23.133Z,8.27
2023-03-05T14:21:15.026Z,8.07
2023-03-05T14:24:31.710Z,7.13
2023-03-05T14:27:39.126Z,6.23
2023-03-05T14:30:23.656Z,6.67
2023-03-05T14:33:16.827Z,8.23
2023-03-05T14:35:59.690Z,7.90
2023-03-05T14:38:55.998Z,7.43
2023-03-05T14:41:56.533Z,6.80
2023-03-05T14:44:45.067Z,7.37
2023-03-05T14:47:28.298Z,8.63
2023-03-05T14:50:06.440Z,6.33
2023-03-05T14:52:44.870Z,8.73
2023-03-05T14:55:44.053Z,6.33
2023-03-05T14:58:26.364Z,9.47
2023-03-05T15:01:34.404Z,7.47
2023-03-05T15:04:20.276Z,7.50
2023-03-05T15:07:20.250Z,7.40
2023-03-05T15:10:10.384Z,7.43
2023-03-05T15:12:51.997Z,6.63
2023-03-05T15:15:25.545Z,6.87
2023-03-05T15:18:02.282Z,7.10
2023-03-05T15:20:43.316Z,7.10
2023-03-05T15:23:15.343Z,8.43
2023-03-05T15:26:09.655Z,7.50
2023-03-05T15:28:51.580Z,7.17
2023-03-05T15:31:25.145Z,6.97
2023-03-05T15:34:13.433Z,12.27
2023-03-05T15:36:53.323Z,7.67
2023-03-05T15:39:26.864Z,10.17
2023-03-05T15:42:31.462Z,7.77
2023-03-05T15:45:28.118Z,6.33
2023-03-05T15:48:10.273Z,6.83
2023-03-05T15:51:03.437Z,7.77
2023-03-05T15:53:47.305Z,8.53
2023-03-05T15:56:31.559Z,8.10
2023-03-05T15:59:16.499Z,6.30
2023-03-05T16:01:53.417Z,7.80
2023-03-05T16:04:32.859Z,8.93
2023-03-05T16:07:52.269Z,5.40
2023-03-05T16:10:32.135Z,7.00
2023-03-05T16:13:33.270Z,5.70
2023-03-05T16:16:08.554Z,7.90
2023-03-05T16:19:00.034Z,6.63
2023-03-05T16:21:39.706Z,6.80
2023-03-05T16:24:20.470Z,6.53
2023-03-05T16:27:04.268Z,7.80
2023-03-05T16:29:46.791Z,8.07
2023-03-05T16:32:30.604Z,7.00
2023-03-05T16:35:18.634Z,6.27
2023-03-05T16:37:55.838Z,9.70
2023-03-05T16:41:07.268Z,5.27
2023-03-05T16:43:44.883Z,6.43
2023-03-05T16:46:27.844Z,6.43
2023-03-05T16:49:12.295Z,6.57
2023-03-05T16:51:53.833Z,5.57
2023-03-05T16:54:26.190Z,6.10
2023-03-05T16:57:13.237Z,7.43
2023-03-05T16:59:53.971Z,5.80
2023-03-05T17:02:29.567Z,7.00
2023-03-05T17:05:28.708Z,5.03
2023-03-05T17:08:12.091Z,6.80
2023-03-05T17:11:08.759Z,8.90
2023-03-05T17:14:06.630Z,8.10
2023-03-05T17:16:50.792Z,6.20
2023-03-05T17:19:27.974Z,6.57
2023-03-05T17:22:20.339Z,6.50
2023-03-05T17:24:55.326Z,7.23
2023-03-05T17:27:39.281Z,6.73
2023-03-05T17:30:27.268Z,6.73
2023-03-05T17:32:59.749Z,5.63
2023-03-05T17:35:50.388Z,7.13
2023-03-05T17:38:31.442Z,7.77
2023-03-05T17:41:15.869Z,7.17
2023-03-05T17:44:18.307Z,7.07
2023-03-05T17:47:05.016Z,8.47
2023-03-05T17:49:44.322Z,4.90
2023-03-05T17:52:30.943Z,6.23
2023-03-05T17:55:12.979Z,6.93
2023-03-05T17:57:48.463Z,7.97
2023-03-05T18:00:40.649Z,8.07
2023-03-05T18:03:58.140Z,6.77
2023-03-05T18:06:47.991Z,7.77
2023-03-05T18:09:18.558Z,6.77
2023-03-05T18:12:10.470Z,7.17
2023-03-05T18:15:11.102Z,6.67
2023-03-05T18:17:53.403Z,5.40
2023-03-05T18:20:40.681Z,9.30
2023-03-05T18:23:39.412Z,6.27
2023-03-05T18:26:40.971Z,8.10
2023-03-05T18:29:36.536Z,7.37
2023-03-05T18:32:24.901Z,7.70
2023-03-05T18:35:01.640Z,6.27
2023-03-05T18:37:43.635Z,10.20
2023-03-05T18:40:32.866Z,6.53
2023-03-05T18:43:27.905Z,6.87
2023-03-05T18:46:13.717Z,9.80
2023-03-05T18:48:56.618Z,7.13
2023-03-05T18:51:47.563Z,7.50
2023-03-05T18:55:03.864Z,8.33
2023-03-05T18:57:46.349Z,6.50
2023-03-05T19:00:29.585Z,11.73
2023-03-05T19:03:07.097Z,7.77
2023-03-05T19:05:53.533Z,7.40
2023-03-05T19:08:25.993Z,10.60
2023-03-05T19:11:04.796Z,11.53
2023-03-05T19:13:49.216Z,8.57
2023-03-05T19:16:29.633Z,7.17
2023-03-05T19:19:24.852Z,11.97
2023-03-05T19:22:12.140Z,9.73
2023-03-05T19:24:56.626Z,8.67
2023-03-05T19:28:13.646Z,10.77
2023-03-05T19:31:06.306Z,10.97
2023-03-05T19:33:43.795Z,11.07
2023-03-05T19:36:21.596Z,9.83
2023-03-05T19:39:08.474Z,12.20
2023-03-05T19:41:41.623Z,9.57
2023-03-05T19:44:30.488Z,9.43
2023-03-05T19:47:26.515Z,9.30
2023-03-05T19:50:19.797Z,9.67
2023-03-05T19:53:01.316Z,10.00
2023-03-05T19:56:09.957Z,9.60
2023-03-05T19:58:49.292Z,14.47
2023-03-05T20:01:38.354Z,11.27
2023-03-05T20:04:30.878Z,10.47
2023-03-05T20:07:11.737Z,11.13
2023-03-05T20:09:51.668Z,13.07
2023-03-05T20:12:36.776Z,9.70
2023-03-05T20:15:12.452Z,8.83
2023-03-05T20:18:02.356Z,11.13
2023-03-05T20:20:49.707Z,10.20
2023-03-05T20:23:24.892Z,8.77
2023-03-05T20:26:09.031Z,10.03
2023-03-05T20:29:19.097Z,10.17
2023-03-05T20:32:02.092Z,10.77
2023-03-05T20:35:14.463Z,8.10
2023-03-05T20:38:13.083Z,7.97
2023-03-05T20:40:54.423Z,8.97
2023-03-05T20:43:39.371Z,11.43
2023-03-05T20:46:19.347Z,9.27
2023-03-05T20:49:10.413Z,8.53
2023-03-05T20:51:54.261Z,9.40
2023-03-05T20:54:52.049Z,8.53
2023-03-05T20:57:49.128Z,7.80
2023-03-05T21:00:21.806Z,9.30
2023-03-05T21:03:09.902Z,10.77
2023-03-05T21:06:02.953Z,9.53
2023-03-05T21:08:57.157Z,8.27
2023-03-05T21:11:43.481Z,10.77
2023-03-05T21:14:38.165Z,8.40
2023-03-05T21:17:25.686Z,8.97
2023-03-05T21:20:02.850Z,7.30
2023-03-05T21:22:50.741Z,6.13
2023-03-05T21:25:39.791Z,7.30
2023-03-05T21:28:35.512Z,7.43
2023-03-05T21:31:32.604Z,8.43
2023-03-05T21:34:19.343Z,6.97
2023-03-05T21:37:15.281Z,6.20
2023-03-05T21:40:04.837Z,8.37
2023-03-05T21:43:04.473Z,7.67
2023-03-05T21:45:54.459Z,7.07
2023-03-05T21:48:39.818Z,7.63
2023-03-05T21:51:12.918Z,10.00
2023-03-05T21:53:53.295Z,6.97
2023-03-05T21:56:48.115Z,6.93
2023-03-05T21:59:54.689Z,9.90
2023-03-05T22:02:57.496Z,7.03
2023-03-05T22:05:45.616Z,7.47
2023-03-05T22:08:23.395Z,8.00
2023-03-05T22:11:11.851Z,8.53
2023-03-05T22:14:01.549Z,7.40
2023-03-05T22:16:53.496Z,7.60
2023-03-05T22:19:24.348Z,8.10
2023-03-05T22:22:04.633Z,7.47
2023-03-05T22:24:46.033Z,7.67
2023-03-05T22:27:40.560Z,7.63
2023-03-05T22:30:28.063Z,7.87
2023-03-05T22:33:25.827Z,5.73
2023-03-05T22:36:38.922Z,7.17
2023-03-05T22:39:13.456Z,8.87
2023-03-05T22:41:59.602Z,6.07
2023-03-05T22:44:34.841Z,6.50
2023-03-05T22:47:11.240Z,8.40
2023-03-05T22:50:07.856Z,6.90
2023-03-05T22:52:40.331Z,8.83
2023-03-05T22:55:25.306Z,7.03
2023-03-05T22:58:05.558Z,6.20
2023-03-05T23:01:02.220Z,7.43
2023-03-05T23:03:45.008Z,5.97
2023-03-05T23:06:48.948Z,6.80
2023-03-05T23:09:41.396Z,7.47
2023-03-05T23:12:44.888Z,6.60
2023-03-05T23:15:30.339Z,7.47
2023-03-05T23:18:14.709Z,5.10
2023-03-05T23:21:00.531Z,6.70
2023-03-05T23:24:09.679Z,8.43
2023-03-05T23:26:52.352Z,6.63
2023-03-05T23:29:34.874Z,5.70
2023-03-05T23:32:21.173Z,6.23
2023-03-05T23:35:24.466Z,10.37
2023-03-05T23:38:00.050Z,7.00
2023-03-05T23:41:04.490Z,7.80
2023-03-05T23:43:44.028Z,6.77
2023-03-05T23:46:31.095Z,6.13
2023-03-05T23:49:05.444Z,8.50
2023-03-05T23:51:44.123Z,6.63
2023-03-05T23:54:16.235Z,9.07
2023-03-05T23:57:01.213Z,9.00
2023-03-05T23:59:48.149Z,5.87
